Time;durP1;ratioP1;P1;durP2;ratioP2;P2;SDS_P1;SDS_P2;PMS_P1;PMS_P2;Temp;Humidity;BMP_temperature;BMP_pressure;BME280_temperature;BME280_humidity;BME280_pressure;Samples;Min_cycle;Max_cycle;Signal;HPM_P1;HPM_P2
2024/02/11 00:00:27;;;;;;;43.80;24.67;;;9.80;99.90;;;14.35;100.00;98074.38;5023844;28;20034;-76
2024/02/11 00:02:53;;;;;;;45.25;23.95;;;9.80;99.90;;;14.30;100.00;98073.66;5020462;28;20084;-76
2024/02/11 00:05:19;;;;;;;42.35;24.40;;;9.80;99.90;;;14.00;100.00;98075.88;5022804;28;20037;-76
2024/02/11 00:07:45;;;;;;;46.33;25.63;;;9.80;99.90;;;13.94;100.00;98070.50;5019782;28;20033;-77
2024/02/11 00:10:11;;;;;;;45.25;25.02;;;9.80;99.90;;;14.33;100.00;98073.09;5020845;28;20033;-77
2024/02/11 00:12:41;;;;;;;46.25;25.42;;;9.80;99.90;;;14.26;100.00;98083.63;5019169;28;20373;-77
2024/02/11 00:15:08;;;;;;;46.25;25.30;;;9.80;99.90;;;14.36;100.00;98083.44;5012294;28;20514;-77
2024/02/11 00:17:37;;;;;;;48.15;26.67;;;9.80;99.90;;;14.50;100.00;98075.22;5021991;28;20527;-77
2024/02/11 00:20:07;;;;;;;46.60;26.67;;;9.80;99.90;;;14.51;100.00;98074.88;5007124;28;20116;-77
2024/02/11 00:22:33;;;;;;;45.13;24.80;;;9.80;99.90;;;14.42;100.00;98065.75;4993491;28;20033;-77
2024/02/11 00:25:01;;;;;;;46.42;25.52;;;9.80;99.90;;;14.64;100.00;98070.50;5014655;28;20041;-77
2024/02/11 00:27:26;;;;;;;43.97;25.50;;;9.80;99.90;;;14.65;100.00;98066.63;4988017;28;20129;-77
2024/02/11 00:29:52;;;;;;;43.03;24.48;;;9.80;99.90;;;14.62;100.00;98069.22;5036381;28;20137;-78
2024/02/11 00:32:18;;;;;;;43.55;25.80;;;9.80;99.90;;;14.53;100.00;98069.91;5006400;28;20930;-77
2024/02/11 00:34:44;;;;;;;39.95;24.70;;;9.80;99.90;;;14.68;100.00;98068.78;5005080;28;20030;-77
2024/02/11 00:37:13;;;;;;;42.55;25.40;;;9.90;99.90;;;14.53;100.00;98058.13;5004522;28;20044;-77
2024/02/11 00:39:39;;;;;;;40.58;24.42;;;9.90;99.90;;;14.21;100.00;98062.63;5009101;28;20033;-78
2024/02/11 00:42:04;;;;;;;43.45;26.15;;;9.90;99.90;;;14.52;100.00;98059.25;5003584;28;20037;-77
2024/02/11 00:44:31;;;;;;;43.33;25.60;;;9.80;99.90;;;14.35;100.00;98059.88;5014986;28;20673;-77
2024/02/11 00:47:01;;;;;;;43.30;25.33;;;9.90;99.90;;;14.05;100.00;98065.63;4990572;28;20026;-77
2024/02/11 00:49:27;;;;;;;43.45;25.42;;;9.80;99.90;;;14.22;100.00;98056.81;5003387;28;20061;-77
2024/02/11 00:51:54;;;;;;;45.33;25.10;;;9.80;99.90;;;14.13;100.00;98052.34;4987268;28;20635;-77
2024/02/11 00:54:20;;;;;;;43.78;25.20;;;9.80;99.90;;;14.32;100.00;98058.53;5004140;28;20030;-77
2024/02/11 00:56:46;;;;;;;40.65;25.73;;;9.80;99.90;;;14.32;100.00;98058.53;5031937;28;20278;-77
2024/02/11 00:59:14;;;;;;;40.38;24.52;;;9.80;99.90;;;14.45;100.00;98056.09;4992713;28;20641;-76
2024/02/11 01:01:40;;;;;;;41.67;24.25;;;9.90;99.90;;;14.64;100.00;98056.00;5024956;28;20029;-77
2024/02/11 01:04:06;;;;;;;43.53;25.13;;;9.90;99.90;;;14.36;100.00;98064.25;5011084;28;20084;-77
2024/02/11 01:06:32;;;;;;;41.38;24.67;;;9.90;99.90;;;14.50;100.00;98070.53;5014507;28;20041;-77
2024/02/11 01:08:59;;;;;;;43.63;25.67;;;9.90;99.90;;;14.46;100.00;98072.25;5014055;28;20081;-77
2024/02/11 01:11:25;;;;;;;41.40;24.75;;;9.90;99.90;;;14.72;100.00;98069.00;4994068;28;20045;-77
2024/02/11 01:13:51;;;;;;;46.47;25.77;;;9.90;99.90;;;14.72;100.00;98069.00;5001405;28;20041;-77
2024/02/11 01:16:17;;;;;;;39.85;24.42;;;9.90;99.90;;;14.67;100.00;98067.16;5006050;28;20093;-77
2024/02/11 01:18:45;;;;;;;41.30;25.30;;;9.80;99.90;;;14.75;100.00;98068.38;5013576;28;20397;-77
2024/02/11 01:21:12;;;;;;;40.25;25.17;;;9.80;99.90;;;14.35;100.00;98068.09;5020028;28;20034;-77
2024/02/11 01:23:38;;;;;;;42.58;25.70;;;9.80;99.90;;;14.08;100.00;98056.00;5021342;28;20034;-78
2024/02/11 01:26:04;;;;;;;43.35;27.27;;;9.90;99.90;;;14.28;100.00;98052.06;5026018;28;20041;-77
2024/02/11 01:28:30;;;;;;;39.75;24.10;;;9.80;99.90;;;14.64;100.00;98050.50;5020868;28;20113;-76
2024/02/11 01:30:57;;;;;;;40.38;24.63;;;9.90;99.90;;;14.14;100.00;98048.47;4998227;28;20092;-77
2024/02/11 01:33:23;;;;;;;43.60;25.55;;;9.90;99.90;;;14.04;100.00;98049.50;5015742;28;20040;-76
2024/02/11 01:35:49;;;;;;;36.70;23.70;;;9.80;99.90;;;14.15;100.00;98047.38;4998110;28;20478;-77
2024/02/11 01:38:15;;;;;;;40.25;24.10;;;9.90;99.90;;;14.27;100.00;98046.84;5025771;28;20052;-77
2024/02/11 01:40:41;;;;;;;38.50;24.48;;;9.90;99.90;;;14.45;100.00;98050.59;5015291;28;20454;-77
2024/02/11 01:43:09;;;;;;;38.00;23.65;;;9.90;99.90;;;14.38;100.00;98046.34;5008923;28;20588;-77
2024/02/11 01:45:36;;;;;;;40.78;24.52;;;9.80;99.90;;;14.14;100.00;98041.09;5010066;28;20034;-76
2024/02/11 01:48:08;;;;;;;36.60;23.85;;;9.80;99.90;;;14.52;100.00;98038.09;5027229;28;20030;-76
2024/02/11 01:50:36;;;;;;;36.95;23.92;;;9.90;99.90;;;14.42;100.00;98043.81;5022519;28;20358;-77
2024/02/11 01:53:04;;;;;;;41.45;24.92;;;9.90;99.90;;;14.45;100.00;98034.16;5022597;28;20113;-77
2024/02/11 01:55:34;;;;;;;38.08;23.17;;;9.90;99.90;;;14.58;100.00;98035.25;5009106;28;20069;-77
2024/02/11 01:58:02;;;;;;;38.50;22.85;;;9.90;99.90;;;14.47;100.00;98040.16;5000603;28;20087;-76
2024/02/11 02:00:28;;;;;;;38.83;24.50;;;9.90;99.90;;;14.38;100.00;98034.59;5022178;28;20038;-77
2024/02/11 02:03:00;;;;;;;41.30;24.15;;;9.90;99.90;;;14.73;100.00;98037.69;5039820;28;20050;-77
2024/02/11 02:05:26;;;;;;;37.65;22.70;;;9.90;99.90;;;14.82;100.00;98051.50;5019855;28;20445;-76
2024/02/11 02:07:56;;;;;;;39.72;23.50;;;9.90;99.90;;;14.85;100.00;98044.56;5022656;28;20083;-77
2024/02/11 02:10:22;;;;;;;40.50;23.48;;;9.90;99.90;;;14.70;100.00;98046.53;5000798;28;20046;-76
2024/02/11 02:12:47;;;;;;;47.97;24.38;;;9.90;99.90;;;14.85;100.00;98050.06;5018819;28;20038;-77
2024/02/11 02:15:13;;;;;;;38.30;23.30;;;9.90;99.90;;;14.90;100.00;98033.50;5021191;28;20044;-77
2024/02/11 02:17:44;;;;;;;40.63;23.55;;;9.90;99.90;;;14.59;100.00;98040.44;5014448;28;20034;-77
2024/02/11 02:20:10;;;;;;;39.80;22.88;;;9.90;99.90;;;14.87;100.00;98037.66;5005992;28;20575;-77
2024/02/11 02:22:35;;;;;;;39.30;23.73;;;9.90;99.90;;;14.92;100.00;98040.28;5020479;28;20048;-77
2024/02/11 02:25:01;;;;;;;44.33;24.85;;;9.90;99.90;;;14.94;100.00;98029.00;5011115;28;20038;-77
2024/02/11 02:27:27;;;;;;;43.78;25.60;;;9.90;99.90;;;14.66;100.00;98043.56;5013650;28;20034;-77
2024/02/11 02:29:53;;;;;;;47.58;24.92;;;9.90;99.90;;;14.88;100.00;98047.53;5007078;28;20030;-77
2024/02/11 02:32:18;;;;;;;48.38;25.48;;;9.90;99.90;;;14.41;100.00;98046.84;5014308;28;20037;-77
2024/02/11 02:34:46;;;;;;;46.28;25.63;;;9.90;99.90;;;14.52;100.00;98046.34;5022181;28;20041;-77
2024/02/11 02:37:12;;;;;;;45.40;25.40;;;9.80;99.90;;;14.77;100.00;98049.69;5016218;28;20121;-77
2024/02/11 02:39:38;;;;;;;51.05;25.98;;;9.90;99.90;;;14.71;100.00;98050.09;5012078;28;20142;-77
2024/02/11 02:42:04;;;;;;;50.20;26.38;;;9.80;99.90;;;14.74;100.00;98047.56;5006592;28;20686;-77
2024/02/11 02:44:33;;;;;;;52.58;26.23;;;9.80;99.90;;;14.26;100.00;98043.31;4996014;28;20485;-77
2024/02/11 02:46:59;;;;;;;52.05;26.52;;;9.80;99.90;;;14.43;100.00;98033.66;5027560;28;20072;-77
2024/02/11 02:49:26;;;;;;;53.50;25.45;;;9.70;99.90;;;14.63;100.00;98046.94;5015031;28;20033;-77
2024/02/11 02:51:51;;;;;;;52.88;26.75;;;9.70;99.90;;;14.47;100.00;98040.16;5029339;28;20069;-77
2024/02/11 02:54:17;;;;;;;54.22;26.05;;;9.70;99.90;;;14.18;100.00;98039.34;5027597;28;20046;-77
2024/02/11 02:56:43;;;;;;;52.00;26.20;;;9.70;99.90;;;14.31;100.00;98031.41;5022168;28;20029;-77
2024/02/11 02:59:08;;;;;;;54.92;26.83;;;9.70;99.90;;;14.45;100.00;98026.75;5019203;28;20030;-77
2024/02/11 03:01:38;;;;;;;53.47;26.17;;;9.70;99.90;;;13.91;100.00;98019.03;5010064;28;20029;-77
2024/02/11 03:04:05;;;;;;;52.83;26.88;;;9.70;99.90;;;14.39;100.00;98017.81;5019788;28;20046;-77
2024/02/11 03:06:33;;;;;;;54.08;26.08;;;9.70;99.90;;;14.26;100.00;98013.16;5018367;28;20367;-77
2024/02/11 03:09:01;;;;;;;54.75;27.10;;;9.60;99.90;;;14.36;100.00;98017.63;5016492;28;20423;-77
2024/02/11 03:11:27;;;;;;;;;;;9.60;99.90;;;14.62;100.00;98014.34;5015073;28;20046;-77
2024/02/11 03:13:53;;;;;;;52.17;25.38;;;9.70;99.90;;;14.22;100.00;98015.69;5021460;28;19912;-77
2024/02/11 03:16:18;;;;;;;58.78;26.92;;;9.70;99.90;;;14.52;100.00;98010.69;5031136;28;20041;-77
2024/02/11 03:18:44;;;;;;;53.67;26.58;;;9.60;99.90;;;14.52;100.00;98018.09;5012373;28;20045;-77
2024/02/11 03:21:11;;;;;;;56.03;26.33;;;9.60;99.90;;;14.40;100.00;98015.88;5017114;28;20041;-77
2024/02/11 03:23:40;;;;;;;59.53;27.23;;;9.60;99.90;;;14.53;100.00;98006.00;5013407;28;20437;-77
2024/02/11 03:26:10;;;;;;;57.50;26.67;;;9.60;99.90;;;14.42;100.00;98007.34;4996091;28;20042;-77
2024/02/11 03:28:37;;;;;;;57.30;27.20;;;9.60;99.90;;;14.32;100.00;98019.31;5005571;28;20073;-77
2024/02/11 03:31:04;;;;;;;58.65;26.92;;;9.60;99.90;;;14.52;100.00;98023.59;5014423;28;20050;-77
2024/02/11 03:33:30;;;;;;;58.45;26.92;;;9.60;99.90;;;14.27;100.00;98019.44;5022336;28;20033;-77
2024/02/11 03:35:56;;;;;;;58.85;26.48;;;9.60;99.90;;;14.21;100.00;98018.75;5024909;28;20044;-77
2024/02/11 03:38:25;;;;;;;58.88;27.50;;;9.50;99.90;;;14.46;100.00;98028.38;5022803;28;20041;-77
2024/02/11 03:40:53;;;;;;;61.17;26.90;;;9.60;99.90;;;14.39;100.00;98033.47;5012151;28;20041;-77
2024/02/11 03:43:20;;;;;;;58.03;27.20;;;9.60;99.90;;;14.51;100.00;98031.00;5016900;28;20092;-77
2024/02/11 03:45:50;;;;;;;62.75;27.65;;;9.60;99.90;;;14.35;100.00;98032.44;4996175;28;20100;-77
2024/02/11 03:48:18;;;;;;;61.33;27.88;;;9.50;99.90;;;14.39;100.00;98034.25;5024563;28;20061;-77
2024/02/11 03:50:46;;;;;;;61.53;27.70;;;9.50;99.90;;;14.58;100.00;98036.06;5034953;28;20038;-77
2024/02/11 03:53:14;;;;;;;60.17;26.83;;;9.50;99.90;;;14.35;100.00;98040.69;5012766;28;20034;-77
2024/02/11 03:55:41;;;;;;;61.58;27.02;;;9.50;99.90;;;14.45;100.00;98036.88;4992903;28;20057;-77
2024/02/11 03:58:07;;;;;;;60.67;26.52;;;9.50;99.90;;;14.27;100.00;98036.72;5018284;28;20065;-77
2024/02/11 04:00:33;;;;;;;62.83;28.20;;;9.50;99.90;;;14.55;100.00;98039.44;5012876;28;20475;-77
2024/02/11 04:02:59;;;;;;;58.75;27.05;;;9.50;99.90;;;14.65;100.00;98041.94;5015228;28;20091;-77
2024/02/11 04:05:28;;;;;;;59.50;27.65;;;9.50;99.90;;;14.64;100.00;98039.53;5025699;28;20474;-77
2024/02/11 04:07:55;;;;;;;58.85;28.13;;;9.50;99.90;;;14.80;100.00;98040.81;5006621;28;20034;-77
2024/02/11 04:10:23;;;;;;;55.90;27.43;;;9.50;99.90;;;14.73;100.00;98036.91;5015888;28;20039;-77
2024/02/11 04:12:54;;;;;;;53.63;27.00;;;9.50;99.90;;;14.72;100.00;98040.75;5014156;28;20042;-77
2024/02/11 04:15:22;;;;;;;56.45;27.65;;;9.50;99.90;;;14.60;100.00;98044.00;5017215;28;20049;-77
2024/02/11 04:17:53;;;;;;;54.55;26.65;;;9.50;99.90;;;14.72;100.00;98052.53;5014124;28;20103;-77
2024/02/11 04:20:26;;;;;;;52.53;26.40;;;9.50;99.90;;;14.59;100.00;98037.69;5028456;28;20114;-77
2024/02/11 04:23:00;;;;;;;56.60;27.40;;;9.50;99.90;;;14.52;100.00;98037.31;5022404;28;20038;-77
2024/02/11 04:25:33;;;;;;;56.88;27.80;;;9.50;99.90;;;14.47;100.00;98034.69;5017187;28;20065;-77
2024/02/11 04:28:00;;;;;;;59.50;29.40;;;9.50;99.90;;;14.41;100.00;98035.88;5019480;28;20029;-77
2024/02/11 04:30:29;;;;;;;58.25;28.08;;;9.50;99.90;;;14.18;100.00;98050.31;5026621;28;20056;-77
2024/02/11 04:32:59;;;;;;;57.60;28.80;;;9.50;99.90;;;14.22;100.00;98043.09;5019923;28;20150;-77
2024/02/11 04:35:24;;;;;;;58.75;28.67;;;9.50;99.90;;;14.16;100.00;98046.25;5025532;28;20087;-77
2024/02/11 04:37:53;;;;;;;58.42;29.90;;;9.50;99.90;;;13.93;100.00;98041.47;5023457;28;20037;-77
2024/02/11 04:40:20;;;;;;;59.30;29.73;;;9.50;99.90;;;14.36;100.00;98040.34;5020022;28;20129;-77
2024/02/11 04:42:52;;;;;;;62.45;30.10;;;9.50;99.90;;;13.71;100.00;98046.81;5021178;28;20116;-77
2024/02/11 04:45:19;;;;;;;63.03;30.08;;;9.50;99.90;;;13.44;100.00;98042.88;5017515;28;20041;-77
2024/02/11 04:47:53;;;;;;;58.80;30.08;;;9.40;99.90;;;13.23;100.00;98044.00;5007407;28;20066;-77
2024/02/11 04:50:21;;;;;;;62.38;30.52;;;9.40;99.90;;;13.27;100.00;98054.34;5014917;28;20037;-77
2024/02/11 04:52:55;;;;;;;66.20;31.65;;;9.30;99.90;;;13.72;100.00;98059.38;5011742;28;20042;-77
2024/02/11 04:55:27;;;;;;;66.47;32.20;;;9.30;99.90;;;13.39;100.00;98054.69;4998067;28;20041;-77
2024/02/11 04:57:58;;;;;;;68.80;33.05;;;9.30;99.90;;;13.07;100.00;98048.91;5010138;28;20037;-77
2024/02/11 05:00:28;;;;;;;67.85;33.45;;;9.30;99.90;;;13.16;100.00;98050.97;5012013;28;20114;-77
2024/02/11 05:03:03;;;;;;;73.30;34.22;;;9.30;99.90;;;13.47;100.00;98050.50;4997575;28;20070;-77
2024/02/11 05:05:31;;;;;;;66.85;32.40;;;9.30;99.90;;;13.50;100.00;98049.88;5017713;28;20174;-77
2024/02/11 05:08:07;;;;;;;64.78;32.53;;;9.30;99.90;;;13.58;100.00;98051.13;5023656;28;20671;-77
2024/02/11 05:10:37;;;;;;;71.55;32.50;;;9.30;99.90;;;13.78;100.00;98048.03;5020003;28;20489;-77
2024/02/11 05:13:04;;;;;;;67.55;31.13;;;9.40;99.90;;;13.29;100.00;98052.97;5003796;28;20045;-77
2024/02/11 05:15:40;;;;;;;63.53;31.58;;;9.40;99.90;;;13.23;100.00;98045.91;5027850;28;20034;-77
2024/02/11 05:18:09;;;;;;;64.25;31.65;;;9.40;99.90;;;13.23;100.00;98048.66;5025239;28;20030;-77
2024/02/11 05:20:36;;;;;;;65.28;32.78;;;9.40;99.90;;;13.43;100.00;98052.22;5003217;28;20060;-77
2024/02/11 05:23:05;;;;;;;67.82;32.97;;;9.40;99.90;;;13.38;100.00;98051.16;5016967;28;20041;-77
2024/02/11 05:25:32;;;;;;;65.55;32.13;;;9.40;99.90;;;13.94;100.00;98042.28;5002512;28;20378;-77
2024/02/11 05:28:02;;;;;;;66.10;31.52;;;9.40;99.90;;;14.13;100.00;98052.34;5019453;28;20031;-77
2024/02/11 05:30:43;;;;;;;71.72;33.72;;;9.40;99.90;;;13.94;100.00;98054.06;4999985;28;20061;-77
2024/02/11 05:33:13;;;;;;;62.65;30.30;;;9.40;99.90;;;14.28;100.00;98053.97;5022113;28;20034;-77
2024/02/11 05:35:39;;;;;;;61.75;30.45;;;9.40;99.90;;;14.28;100.00;98052.06;5035731;28;20041;-77
2024/02/11 05:38:08;;;;;;;60.30;31.05;;;9.40;99.90;;;13.73;100.00;98052.78;5020446;28;20037;-77
2024/02/11 05:40:41;;;;;;;65.55;31.48;;;9.40;99.90;;;13.66;100.00;98056.75;5018494;28;20088;-77
2024/02/11 05:43:15;;;;;;;63.22;31.90;;;9.40;99.90;;;13.81;100.00;98057.59;4995479;28;20064;-76
2024/02/11 05:45:41;;;;;;;63.90;29.95;;;9.40;99.90;;;14.09;100.00;98054.91;5015535;28;20046;-77
2024/02/11 05:48:12;;;;;;;65.20;32.53;;;9.40;99.90;;;14.10;100.00;98056.53;5020688;28;20041;-77
2024/02/11 05:50:39;;;;;;;67.80;32.88;;;9.40;99.90;;;13.91;100.00;98046.44;5026395;28;20091;-76
2024/02/11 05:53:06;;;;;;;63.03;31.17;;;9.40;99.90;;;14.24;100.00;98065.53;5015543;28;20030;-77
2024/02/11 05:55:33;;;;;;;60.72;30.15;;;9.40;99.90;;;14.33;100.00;98062.13;5023170;28;20041;-76
2024/02/11 05:57:59;;;;;;;62.67;31.15;;;9.40;99.90;;;14.39;100.00;98058.16;5005049;28;20034;-76
2024/02/11 06:00:29;;;;;;;60.88;30.33;;;9.40;99.90;;;14.47;100.00;98057.41;5017337;28;20044;-77
2024/02/11 06:02:56;;;;;;;58.13;29.77;;;9.50;99.90;;;14.55;100.00;98061.38;5021440;28;20057;-77
2024/02/11 06:05:23;;;;;;;60.65;31.75;;;9.50;99.90;;;14.75;100.00;98062.91;5014595;28;20069;-76
2024/02/11 06:07:59;;;;;;;53.97;29.17;;;9.50;99.90;;;14.84;100.00;98065.72;5009853;28;20030;-77
2024/02/11 06:10:27;;;;;;;55.00;29.90;;;9.50;99.90;;;14.47;100.00;98062.09;4989429;28;20037;-77
2024/02/11 06:12:53;;;;;;;55.47;29.75;;;9.50;99.90;;;14.79;100.00;98060.38;5011865;28;20577;-76
2024/02/11 06:15:20;;;;;;;56.67;30.00;;;9.50;99.90;;;14.59;100.00;98053.34;5012580;28;20148;-77
2024/02/11 06:17:51;;;;;;;54.08;29.10;;;9.50;99.90;;;14.26;100.00;98065.25;4996500;28;20038;-77
2024/02/11 06:20:18;;;;;;;57.90;28.52;;;9.50;99.90;;;13.88;100.00;98068.16;5013094;28;20129;-77
2024/02/11 06:22:47;;;;;;;53.60;29.40;;;9.50;99.90;;;13.91;100.00;98062.88;5002308;28;22093;-77
2024/02/11 06:25:13;;;;;;;59.58;29.55;;;9.40;99.90;;;13.03;100.00;98066.22;5007487;28;20044;-77
2024/02/11 06:27:40;;;;;;;58.72;31.45;;;9.40;99.90;;;12.69;100.00;98067.22;5012625;28;20066;-77
2024/02/11 06:30:12;;;;;;;56.83;30.27;;;9.30;99.90;;;12.80;100.00;98074.19;5017671;28;20033;-77
2024/02/11 06:32:43;;;;;;;60.95;31.60;;;9.40;99.90;;;12.84;100.00;98069.75;5016345;28;20034;-77
2024/02/11 06:35:10;;;;;;;61.08;31.40;;;9.40;99.90;;;12.82;100.00;98071.16;5018377;28;20045;-77
2024/02/11 06:37:40;;;;;;;62.47;31.80;;;9.40;99.90;;;12.63;100.00;98080.16;5014139;28;20874;-77
2024/02/11 06:40:15;;;;;;;55.45;29.00;;;9.40;99.90;;;12.84;100.00;98071.69;5011203;28;20041;-77
2024/02/11 06:42:42;;;;;;;59.72;30.85;;;9.40;99.90;;;12.77;100.00;98074.78;5002008;28;20041;-77
2024/02/11 06:45:12;;;;;;;65.60;31.73;;;9.40;99.90;;;12.96;100.00;98072.03;5015418;28;20132;-77
2024/02/11 06:47:39;;;;;;;54.17;30.38;;;9.40;99.90;;;13.33;100.00;98078.63;5009387;28;20034;-77
2024/02/11 06:50:07;;;;;;;59.33;30.08;;;9.40;99.90;;;12.80;100.00;98085.13;4994856;28;20044;-76
2024/02/11 06:52:34;;;;;;;62.22;32.58;;;9.30;99.90;;;13.02;100.00;98087.31;5015369;28;20041;-77
2024/02/11 06:55:05;;;;;;;58.50;29.50;;;9.40;99.90;;;13.38;100.00;98088.66;4994655;28;20026;-77
2024/02/11 06:57:32;;;;;;;59.63;30.42;;;9.40;99.90;;;13.00;100.00;98085.97;5018554;28;20049;-77
2024/02/11 06:59:59;;;;;;;55.57;29.80;;;9.40;99.90;;;13.28;100.00;98086.94;5013032;28;20026;-77
2024/02/11 07:02:24;;;;;;;57.42;29.52;;;9.40;99.90;;;13.63;100.00;98090.22;5011065;28;20353;-77
2024/02/11 07:04:54;;;;;;;63.53;30.70;;;9.40;99.90;;;13.26;100.00;98083.66;5006908;28;20563;-77
2024/02/11 07:07:22;;;;;;;58.70;30.00;;;9.40;99.90;;;13.78;100.00;98093.78;5007598;28;20037;-77
2024/02/11 07:09:48;;;;;;;59.75;30.95;;;9.40;99.90;;;14.00;100.00;98086.84;5015964;28;20045;-78
2024/02/11 07:12:16;;;;;;;60.55;31.05;;;9.50;99.90;;;14.31;100.00;98091.75;5012468;28;20038;-78
2024/02/11 07:14:45;;;;;;;55.25;28.73;;;9.50;99.90;;;14.55;100.00;98104.44;5011198;28;20038;-77
2024/02/11 07:17:14;;;;;;;55.92;30.25;;;9.60;99.90;;;13.93;100.00;98099.03;5012809;28;20033;-76
2024/02/11 07:19:41;;;;;;;61.67;30.55;;;9.60;99.90;;;12.97;100.00;98100.22;5016688;28;20041;-77
2024/02/11 07:22:08;;;;;;;60.20;30.85;;;9.50;99.90;;;12.74;100.00;98097.25;5014667;28;20048;-78
2024/02/11 07:24:34;;;;;;;56.75;30.50;;;9.50;99.90;;;13.17;100.00;98093.66;5029487;28;20136;-77
2024/02/11 07:27:00;;;;;;;53.95;29.00;;;9.40;99.90;;;13.56;100.00;98108.16;5016968;28;20080;-78
2024/02/11 07:29:27;;;;;;;58.58;30.80;;;9.50;99.90;;;13.51;100.00;98109.03;5019518;28;20441;-77
2024/02/11 07:31:55;;;;;;;56.85;29.55;;;9.50;99.90;;;14.03;100.00;98113.66;5027539;28;20116;-78
2024/02/11 07:34:21;;;;;;;52.80;30.83;;;9.50;99.90;;;14.10;100.00;98119.56;5018477;28;20549;-78
2024/02/11 07:36:46;;;;;;;54.28;28.88;;;9.50;99.90;;;14.39;100.00;98127.50;5013403;28;20030;-78
2024/02/11 07:39:15;;;;;;;60.85;31.30;;;9.50;99.90;;;14.34;100.00;98124.88;5018566;28;20037;-78
2024/02/11 07:41:45;;;;;;;55.38;30.83;;;9.60;99.90;;;14.55;100.00;98123.66;5029388;28;20078;-79
2024/02/11 07:44:12;;;;;;;56.30;30.77;;;9.60;99.90;;;13.51;100.00;98133.69;5019249;28;20075;-77
2024/02/11 07:46:39;;;;;;;54.78;29.65;;;9.60;99.90;;;12.83;100.00;98139.25;5026932;28;20052;-78
2024/02/11 07:49:05;;;;;;;52.88;29.42;;;9.50;99.90;;;12.71;100.00;98133.41;5029776;28;20095;-79
2024/02/11 07:51:31;;;;;;;55.45;29.02;;;9.50;99.90;;;13.29;100.00;98128.78;5020503;28;20515;-78
2024/02/11 07:53:57;;;;;;;52.58;29.08;;;9.50;99.90;;;13.38;100.00;98127.81;5020025;28;20033;-76
2024/02/11 07:56:25;;;;;;;54.60;28.80;;;9.50;99.90;;;12.95;100.00;98136.09;5022806;28;20037;-78
2024/02/11 07:58:51;;;;;;;52.63;29.67;;;9.50;99.90;;;12.72;100.00;98141.28;5019245;28;20548;-77
2024/02/11 08:01:17;;;;;;;60.28;31.23;;;9.50;99.90;;;12.82;100.00;98145.03;5012724;28;20046;-75
2024/02/11 08:03:43;;;;;;;56.95;30.27;;;9.50;99.90;;;12.64;100.00;98137.31;5005324;28;20049;-78
2024/02/11 08:06:09;;;;;;;60.63;31.50;;;9.50;99.90;;;12.54;100.00;98131.16;5016155;28;20117;-76
2024/02/11 08:08:37;;;;;;;57.15;32.22;;;9.40;99.90;;;12.62;100.00;98144.16;5017017;28;20033;-77
2024/02/11 08:11:03;;;;;;;59.60;30.95;;;9.40;99.90;;;12.55;100.00;98157.38;5012851;28;20122;-78
2024/02/11 08:13:31;;;;;;;60.47;30.48;;;9.40;99.90;;;12.54;100.00;98151.09;5014357;28;20038;-79
2024/02/11 08:15:56;;;;;;;70.30;33.53;;;9.40;99.90;;;12.46;100.00;98149.00;5017310;28;20500;-78
2024/02/11 08:18:22;;;;;;;64.25;31.77;;;9.40;99.90;;;12.31;100.00;98166.38;5025909;28;20042;-79
2024/02/11 08:20:48;;;;;;;72.55;33.08;;;9.40;99.90;;;12.41;100.00;98169.00;5024147;28;20485;-80
2024/02/11 08:23:13;;;;;;;65.72;31.45;;;9.40;99.90;;;12.31;100.00;98172.66;5016413;28;20044;-78
2024/02/11 08:25:39;;;;;;;69.68;31.33;;;9.40;99.90;;;12.37;100.00;98176.97;5012103;28;20038;-76
2024/02/11 08:28:05;;;;;;;68.35;32.28;;;9.40;99.90;;;12.44;100.00;98184.81;5012995;28;20038;-78
2024/02/11 08:30:31;;;;;;;72.07;32.88;;;9.40;99.90;;;12.38;100.00;98183.25;5019235;28;20036;-80
2024/02/11 08:32:58;;;;;;;74.43;32.67;;;9.40;99.90;;;12.16;100.00;98179.06;5009317;28;20029;-78
2024/02/11 08:35:24;;;;;;;70.88;33.35;;;9.40;99.90;;;12.32;100.00;98182.47;5011511;28;20041;-79
2024/02/11 08:37:49;;;;;;;73.53;32.85;;;9.40;99.90;;;12.49;100.00;98187.53;5021039;28;20524;-77
2024/02/11 08:40:15;;;;;;;70.43;32.33;;;9.40;99.90;;;12.54;100.00;98186.63;5010262;28;20068;-79
2024/02/11 08:42:41;;;;;;;76.28;32.92;;;9.40;99.90;;;12.59;100.00;98188.50;5009642;28;20026;-78
2024/02/11 08:45:07;;;;;;;85.00;34.28;;;9.50;99.90;;;12.46;100.00;98187.28;5012457;28;20037;-79
2024/02/11 08:47:34;;;;;;;78.22;33.90;;;9.50;99.90;;;12.55;100.00;98188.25;5021304;28;20034;-79
2024/02/11 08:50:01;;;;;;;77.90;35.15;;;9.50;99.90;;;12.42;100.00;98180.75;5017341;28;20051;-79
2024/02/11 08:52:27;;;;;;;80.75;34.03;;;9.50;99.90;;;12.46;100.00;98184.53;5019339;28;20485;-79
2024/02/11 08:54:52;;;;;;;80.18;33.67;;;9.50;99.90;;;12.41;100.00;98190.88;5017493;28;20037;-79
2024/02/11 08:57:22;;;;;;;82.57;35.63;;;9.50;99.90;;;12.77;100.00;98187.75;5016933;28;20212;-78
2024/02/11 08:59:48;;;;;;;79.07;34.30;;;9.60;99.90;;;12.80;100.00;98189.09;5015957;28;20064;-77
2024/02/11 09:02:17;;;;;;;76.95;32.85;;;9.60;99.90;;;12.84;100.00;98192.88;5017511;28;20470;-77
2024/02/11 09:04:43;;;;;;;75.25;34.00;;;9.70;99.90;;;12.54;100.00;98196.78;5015607;28;20117;-78
2024/02/11 09:07:10;;;;;;;71.22;32.40;;;9.50;99.90;;;12.55;100.00;98201.94;5018475;28;20544;-78
2024/02/11 09:09:36;;;;;;;69.43;32.53;;;9.60;99.90;;;12.96;100.00;98211.59;5004558;28;20039;-78
2024/02/11 09:12:03;;;;;;;72.20;32.97;;;9.60;99.90;;;13.07;100.00;98198.63;5017814;28;20038;-77
2024/02/11 09:14:31;;;;;;;67.78;31.90;;;9.70;99.90;;;13.30;100.00;98205.16;4995009;28;20034;-77
2024/02/11 09:16:58;;;;;;;;;;;9.80;99.90;;;13.01;100.00;98203.34;5020166;28;20057;-78
2024/02/11 09:19:25;;;;;;;68.60;31.63;;;9.80;99.90;;;12.84;100.00;98205.75;5020043;28;22348;-77
2024/02/11 09:21:52;;;;;;;67.53;31.23;;;9.80;99.90;;;12.83;100.00;98207.66;5016661;28;20065;-79
2024/02/11 09:24:18;;;;;;;59.63;30.58;;;9.80;99.90;;;12.77;100.00;98203.34;5016034;28;20087;-78
2024/02/11 09:26:45;;;;;;;67.03;30.38;;;9.80;99.90;;;12.66;100.00;98203.47;5016277;28;20125;-79
2024/02/11 09:29:10;;;;;;;62.03;29.52;;;9.80;99.90;;;12.76;100.00;98215.41;5025882;28;20375;-79
2024/02/11 09:31:38;;;;;;;61.28;29.40;;;9.80;99.90;;;12.87;100.00;98213.38;5026601;28;20041;-79
2024/02/11 09:34:05;;;;;;;60.67;28.50;;;9.80;99.90;;;12.83;100.00;98210.38;5011193;28;20068;-79
2024/02/11 09:36:33;;;;;;;57.25;29.13;;;9.80;99.90;;;12.94;100.00;98222.03;5027197;28;20042;-78
2024/02/11 09:39:00;;;;;;;;;;;9.80;99.90;;;12.96;100.00;98219.81;5020088;28;20037;-78
2024/02/11 09:41:30;;;;;;;59.40;30.92;;;9.80;99.90;;;12.97;100.00;98226.13;5010821;28;19917;-79
2024/02/11 09:44:04;;;;;;;60.00;28.92;;;9.80;99.90;;;12.98;100.00;98222.28;5022318;28;20048;-78
2024/02/11 09:46:35;;;;;;;58.28;30.10;;;9.80;99.90;;;13.01;100.00;98217.03;5023199;28;20044;-78
2024/02/11 09:49:22;;;;;;;58.95;30.10;;;9.80;99.90;;;12.90;100.00;98227.28;5004938;28;20109;-78
2024/02/11 09:51:50;;;;;;;59.53;29.60;;;9.80;99.90;;;13.22;100.00;98219.50;5019628;28;20042;-78
2024/02/11 09:54:18;;;;;;;58.72;29.20;;;9.80;99.90;;;13.17;100.00;98223.13;5015296;28;20163;-78
2024/02/11 09:56:44;;;;;;;65.60;31.45;;;9.90;99.90;;;12.99;100.00;98230.16;5015691;28;20037;-79
2024/02/11 09:59:10;;;;;;;57.97;29.88;;;9.90;99.90;;;12.98;100.00;98238.69;5015832;28;20061;-78
2024/02/11 10:01:38;;;;;;;60.25;29.80;;;9.80;99.90;;;13.05;100.00;98230.94;5024476;28;20127;-78
2024/02/11 10:04:06;;;;;;;58.20;29.45;;;9.80;99.90;;;13.29;100.00;98241.03;5005092;28;20576;-78
2024/02/11 10:06:37;;;;;;;61.67;30.77;;;9.80;99.90;;;13.14;100.00;98237.41;5025112;28;20038;-78
2024/02/11 10:09:12;;;;;;;62.03;30.70;;;9.80;99.90;;;13.00;100.00;98242.78;5033776;28;20105;-77